sensor_id;sensor_type;location;lat;lon;timestamp;P1;durP1;ratioP1;P2;durP2;ratioP2
19291;SDS011;9779;51.756;7.450;2023-03-14T00:00:35;3.20;;;1.70;;
19291;SDS011;9779;51.756;7.450;2023-03-14T00:03:01;5.97;;;1.47;;
19291;SDS011;9779;51.756;7.450;2023-03-14T00:05:26;4.33;;;1.37;;
19291;SDS011;9779;51.756;7.450;2023-03-14T00:07:52;5.03;;;1.80;;
19291;SDS011;9779;51.756;7.450;2023-03-14T00:10:18;5.37;;;1.77;;
19291;SDS011;9779;51.756;7.450;2023-03-14T00:12:44;7.50;;;1.87;;
19291;SDS011;9779;51.756;7.450;2023-03-14T00:15:10;3.73;;;1.43;;
19291;SDS011;9779;51.756;7.450;2023-03-14T00:17:36;5.93;;;1.40;;
19291;SDS011;9779;51.756;7.450;2023-03-14T00:20:03;8.30;;;1.40;;
19291;SDS011;9779;51.756;7.450;2023-03-14T00:22:33;4.03;;;1.57;;
19291;SDS011;9779;51.756;7.450;2023-03-14T00:24:59;7.63;;;1.50;;
19291;SDS011;9779;51.756;7.450;2023-03-14T00:27:25;4.17;;;1.33;;
19291;SDS011;9779;51.756;7.450;2023-03-14T00:29:51;1.97;;;1.43;;
19291;SDS011;9779;51.756;7.450;2023-03-14T00:32:16;2.77;;;1.30;;
19291;SDS011;9779;51.756;7.450;2023-03-14T00:34:42;6.03;;;1.50;;
19291;SDS011;9779;51.756;7.450;2023-03-14T00:37:08;7.43;;;1.90;;
19291;SDS011;9779;51.756;7.450;2023-03-14T00:39:33;4.73;;;1.60;;
19291;SDS011;9779;51.756;7.450;2023-03-14T00:41:59;2.63;;;1.40;;
19291;SDS011;9779;51.756;7.450;2023-03-14T00:44:24;2.27;;;1.53;;
19291;SDS011;9779;51.756;7.450;2023-03-14T00:46:50;2.37;;;1.07;;
19291;SDS011;9779;51.756;7.450;2023-03-14T00:49:18;7.37;;;2.67;;
19291;SDS011;9779;51.756;7.450;2023-03-14T00:51:44;4.73;;;1.97;;
19291;SDS011;9779;51.756;7.450;2023-03-14T00:54:09;5.50;;;1.70;;
19291;SDS011;9779;51.756;7.450;2023-03-14T00:56:35;4.73;;;1.93;;
19291;SDS011;9779;51.756;7.450;2023-03-14T00:59:00;6.03;;;1.53;;
19291;SDS011;9779;51.756;7.450;2023-03-14T01:01:26;3.20;;;1.67;;
19291;SDS011;9779;51.756;7.450;2023-03-14T01:03:53;4.43;;;1.70;;
19291;SDS011;9779;51.756;7.450;2023-03-14T01:06:21;4.70;;;1.43;;
19291;SDS011;9779;51.756;7.450;2023-03-14T01:08:52;3.67;;;1.53;;
19291;SDS011;9779;51.756;7.450;2023-03-14T01:11:19;5.90;;;1.50;;
19291;SDS011;9779;51.756;7.450;2023-03-14T01:13:48;4.63;;;1.73;;
19291;SDS011;9779;51.756;7.450;2023-03-14T01:16:14;4.63;;;1.83;;
19291;SDS011;9779;51.756;7.450;2023-03-14T01:18:42;5.37;;;1.73;;
19291;SDS011;9779;51.756;7.450;2023-03-14T01:21:19;3.50;;;1.33;;
19291;SDS011;9779;51.756;7.450;2023-03-14T01:23:47;3.20;;;1.33;;
19291;SDS011;9779;51.756;7.450;2023-03-14T01:26:15;4.97;;;1.50;;
19291;SDS011;9779;51.756;7.450;2023-03-14T01:28:44;4.67;;;1.37;;
19291;SDS011;9779;51.756;7.450;2023-03-14T01:31:10;3.30;;;1.20;;
19291;SDS011;9779;51.756;7.450;2023-03-14T01:33:36;1.83;;;1.17;;
19291;SDS011;9779;51.756;7.450;2023-03-14T01:36:03;2.80;;;1.20;;
19291;SDS011;9779;51.756;7.450;2023-03-14T01:38:33;3.57;;;1.13;;
19291;SDS011;9779;51.756;7.450;2023-03-14T01:41:00;4.00;;;1.80;;
19291;SDS011;9779;51.756;7.450;2023-03-14T01:43:27;3.80;;;1.30;;
19291;SDS011;9779;51.756;7.450;2023-03-14T01:48:42;3.53;;;1.00;;
19291;SDS011;9779;51.756;7.450;2023-03-14T01:51:20;2.37;;;1.20;;
19291;SDS011;9779;51.756;7.450;2023-03-14T01:53:51;7.43;;;1.27;;
19291;SDS011;9779;51.756;7.450;2023-03-14T01:56:24;2.13;;;0.93;;
19291;SDS011;9779;51.756;7.450;2023-03-14T01:58:50;1.00;;;0.90;;
19291;SDS011;9779;51.756;7.450;2023-03-14T02:01:18;1.20;;;0.77;;
19291;SDS011;9779;51.756;7.450;2023-03-14T02:03:48;2.70;;;0.87;;
19291;SDS011;9779;51.756;7.450;2023-03-14T02:06:17;2.47;;;1.17;;
19291;SDS011;9779;51.756;7.450;2023-03-14T02:08:46;2.30;;;1.07;;
19291;SDS011;9779;51.756;7.450;2023-03-14T02:11:14;3.33;;;0.90;;
19291;SDS011;9779;51.756;7.450;2023-03-14T02:13:41;2.30;;;0.90;;
19291;SDS011;9779;51.756;7.450;2023-03-14T02:16:07;2.47;;;0.90;;
19291;SDS011;9779;51.756;7.450;2023-03-14T02:18:33;2.13;;;1.07;;
19291;SDS011;9779;51.756;7.450;2023-03-14T02:21:00;1.43;;;0.97;;
19291;SDS011;9779;51.756;7.450;2023-03-14T02:26:17;4.30;;;1.23;;
19291;SDS011;9779;51.756;7.450;2023-03-14T02:28:45;2.43;;;1.00;;
19291;SDS011;9779;51.756;7.450;2023-03-14T02:31:11;4.67;;;1.10;;
19291;SDS011;9779;51.756;7.450;2023-03-14T02:33:37;1.83;;;1.00;;
19291;SDS011;9779;51.756;7.450;2023-03-14T02:36:07;2.30;;;1.00;;
19291;SDS011;9779;51.756;7.450;2023-03-14T02:38:38;3.90;;;1.10;;
19291;SDS011;9779;51.756;7.450;2023-03-14T02:41:09;2.60;;;1.13;;
19291;SDS011;9779;51.756;7.450;2023-03-14T02:43:34;5.23;;;1.20;;
19291;SDS011;9779;51.756;7.450;2023-03-14T02:46:00;5.47;;;1.53;;
19291;SDS011;9779;51.756;7.450;2023-03-14T02:48:30;3.90;;;1.10;;
19291;SDS011;9779;51.756;7.450;2023-03-14T02:51:00;2.17;;;1.00;;
19291;SDS011;9779;51.756;7.450;2023-03-14T02:53:27;1.70;;;1.00;;
19291;SDS011;9779;51.756;7.450;2023-03-14T02:55:54;7.20;;;1.13;;
19291;SDS011;9779;51.756;7.450;2023-03-14T02:58:20;0.83;;;0.77;;
19291;SDS011;9779;51.756;7.450;2023-03-14T03:00:46;2.57;;;1.10;;
19291;SDS011;9779;51.756;7.450;2023-03-14T03:03:12;2.70;;;1.23;;
19291;SDS011;9779;51.756;7.450;2023-03-14T03:05:39;4.03;;;1.47;;
19291;SDS011;9779;51.756;7.450;2023-03-14T03:08:04;4.20;;;1.27;;
19291;SDS011;9779;51.756;7.450;2023-03-14T03:10:30;2.63;;;1.37;;
19291;SDS011;9779;51.756;7.450;2023-03-14T03:12:56;2.00;;;1.30;;
19291;SDS011;9779;51.756;7.450;2023-03-14T03:15:21;4.37;;;1.30;;
19291;SDS011;9779;51.756;7.450;2023-03-14T03:17:47;6.17;;;1.60;;
19291;SDS011;9779;51.756;7.450;2023-03-14T03:20:13;6.60;;;1.60;;
19291;SDS011;9779;51.756;7.450;2023-03-14T03:22:38;3.63;;;1.57;;
19291;SDS011;9779;51.756;7.450;2023-03-14T03:25:05;6.93;;;1.87;;
19291;SDS011;9779;51.756;7.450;2023-03-14T03:27:32;4.07;;;1.27;;
19291;SDS011;9779;51.756;7.450;2023-03-14T03:29:58;4.13;;;1.43;;
19291;SDS011;9779;51.756;7.450;2023-03-14T03:32:24;3.80;;;1.87;;
19291;SDS011;9779;51.756;7.450;2023-03-14T03:34:50;4.10;;;1.57;;
19291;SDS011;9779;51.756;7.450;2023-03-14T03:37:15;6.63;;;2.37;;
19291;SDS011;9779;51.756;7.450;2023-03-14T03:39:41;7.67;;;1.57;;
19291;SDS011;9779;51.756;7.450;2023-03-14T03:42:07;3.33;;;1.33;;
19291;SDS011;9779;51.756;7.450;2023-03-14T03:44:32;9.57;;;1.80;;
19291;SDS011;9779;51.756;7.450;2023-03-14T03:46:58;2.43;;;1.20;;
19291;SDS011;9779;51.756;7.450;2023-03-14T03:49:24;1.77;;;1.50;;
19291;SDS011;9779;51.756;7.450;2023-03-14T03:51:53;4.27;;;1.50;;
19291;SDS011;9779;51.756;7.450;2023-03-14T03:54:18;4.47;;;1.80;;
19291;SDS011;9779;51.756;7.450;2023-03-14T03:56:44;5.30;;;1.60;;
19291;SDS011;9779;51.756;7.450;2023-03-14T03:59:09;5.70;;;2.30;;
19291;SDS011;9779;51.756;7.450;2023-03-14T04:01:35;6.93;;;1.73;;
19291;SDS011;9779;51.756;7.450;2023-03-14T04:04:00;6.43;;;1.60;;
19291;SDS011;9779;51.756;7.450;2023-03-14T04:06:26;5.80;;;1.90;;
19291;SDS011;9779;51.756;7.450;2023-03-14T04:08:51;2.33;;;1.50;;
19291;SDS011;9779;51.756;7.450;2023-03-14T04:11:20;4.80;;;1.60;;
19291;SDS011;9779;51.756;7.450;2023-03-14T04:13:45;3.37;;;1.17;;
19291;SDS011;9779;51.756;7.450;2023-03-14T04:16:15;5.97;;;1.67;;
19291;SDS011;9779;51.756;7.450;2023-03-14T04:18:43;3.17;;;1.30;;
19291;SDS011;9779;51.756;7.450;2023-03-14T04:21:08;6.20;;;1.53;;
19291;SDS011;9779;51.756;7.450;2023-03-14T04:23:34;4.87;;;1.70;;
19291;SDS011;9779;51.756;7.450;2023-03-14T04:26:00;2.90;;;1.50;;
19291;SDS011;9779;51.756;7.450;2023-03-14T04:28:25;5.70;;;1.60;;
19291;SDS011;9779;51.756;7.450;2023-03-14T04:30:51;4.60;;;1.80;;
19291;SDS011;9779;51.756;7.450;2023-03-14T04:33:16;4.90;;;1.30;;
19291;SDS011;9779;51.756;7.450;2023-03-14T04:35:43;2.67;;;1.30;;
19291;SDS011;9779;51.756;7.450;2023-03-14T04:38:09;2.27;;;1.37;;
19291;SDS011;9779;51.756;7.450;2023-03-14T04:40:39;4.33;;;1.33;;
19291;SDS011;9779;51.756;7.450;2023-03-14T04:43:06;2.47;;;1.53;;
19291;SDS011;9779;51.756;7.450;2023-03-14T04:45:32;6.50;;;2.17;;
19291;SDS011;9779;51.756;7.450;2023-03-14T04:47:57;4.17;;;1.70;;
19291;SDS011;9779;51.756;7.450;2023-03-14T04:50:23;2.53;;;1.10;;
19291;SDS011;9779;51.756;7.450;2023-03-14T04:52:49;3.67;;;1.33;;
19291;SDS011;9779;51.756;7.450;2023-03-14T04:55:14;3.30;;;1.13;;
19291;SDS011;9779;51.756;7.450;2023-03-14T04:57:40;3.83;;;1.30;;
19291;SDS011;9779;51.756;7.450;2023-03-14T05:00:05;4.07;;;1.13;;
19291;SDS011;9779;51.756;7.450;2023-03-14T05:02:32;3.97;;;1.40;;
19291;SDS011;9779;51.756;7.450;2023-03-14T05:04:58;3.57;;;1.00;;
19291;SDS011;9779;51.756;7.450;2023-03-14T05:07:23;3.83;;;1.27;;
19291;SDS011;9779;51.756;7.450;2023-03-14T05:09:49;1.97;;;1.20;;
19291;SDS011;9779;51.756;7.450;2023-03-14T05:12:14;0.93;;;0.80;;
19291;SDS011;9779;51.756;7.450;2023-03-14T05:14:40;2.70;;;0.90;;
19291;SDS011;9779;51.756;7.450;2023-03-14T05:17:05;1.00;;;0.70;;
19291;SDS011;9779;51.756;7.450;2023-03-14T05:19:31;1.93;;;0.90;;
19291;SDS011;9779;51.756;7.450;2023-03-14T05:21:56;1.43;;;0.80;;
19291;SDS011;9779;51.756;7.450;2023-03-14T05:24:22;4.13;;;0.70;;
19291;SDS011;9779;51.756;7.450;2023-03-14T05:26:48;1.33;;;0.80;;
19291;SDS011;9779;51.756;7.450;2023-03-14T05:29:13;0.83;;;0.70;;
19291;SDS011;9779;51.756;7.450;2023-03-14T05:31:39;1.13;;;0.70;;
19291;SDS011;9779;51.756;7.450;2023-03-14T05:34:04;1.47;;;0.70;;
19291;SDS011;9779;51.756;7.450;2023-03-14T05:36:30;2.10;;;0.60;;
19291;SDS011;9779;51.756;7.450;2023-03-14T05:38:56;3.60;;;0.80;;
19291;SDS011;9779;51.756;7.450;2023-03-14T05:41:21;2.53;;;0.77;;
19291;SDS011;9779;51.756;7.450;2023-03-14T05:43:47;0.60;;;0.60;;
19291;SDS011;9779;51.756;7.450;2023-03-14T05:46:12;0.73;;;0.50;;
19291;SDS011;9779;51.756;7.450;2023-03-14T05:48:38;1.30;;;1.00;;
19291;SDS011;9779;51.756;7.450;2023-03-14T05:51:03;0.70;;;0.60;;
19291;SDS011;9779;51.756;7.450;2023-03-14T05:53:29;2.03;;;0.70;;
19291;SDS011;9779;51.756;7.450;2023-03-14T05:55:55;1.90;;;1.00;;
19291;SDS011;9779;51.756;7.450;2023-03-14T05:58:21;0.57;;;0.50;;
19291;SDS011;9779;51.756;7.450;2023-03-14T06:00:47;2.63;;;0.90;;
19291;SDS011;9779;51.756;7.450;2023-03-14T06:03:13;1.43;;;0.70;;
19291;SDS011;9779;51.756;7.450;2023-03-14T06:05:38;1.67;;;1.40;;
19291;SDS011;9779;51.756;7.450;2023-03-14T06:08:04;2.33;;;0.70;;
19291;SDS011;9779;51.756;7.450;2023-03-14T06:10:29;5.70;;;0.70;;
19291;SDS011;9779;51.756;7.450;2023-03-14T06:12:55;1.67;;;0.60;;
19291;SDS011;9779;51.756;7.450;2023-03-14T06:15:20;2.03;;;0.70;;
19291;SDS011;9779;51.756;7.450;2023-03-14T06:17:46;0.50;;;0.50;;
19291;SDS011;9779;51.756;7.450;2023-03-14T06:20:12;1.43;;;0.80;;
19291;SDS011;9779;51.756;7.450;2023-03-14T06:22:37;1.17;;;0.70;;
19291;SDS011;9779;51.756;7.450;2023-03-14T06:25:04;0.53;;;0.50;;
19291;SDS011;9779;51.756;7.450;2023-03-14T06:27:30;0.80;;;0.80;;
19291;SDS011;9779;51.756;7.450;2023-03-14T06:29:55;1.40;;;0.80;;
19291;SDS011;9779;51.756;7.450;2023-03-14T06:32:21;0.60;;;0.60;;
19291;SDS011;9779;51.756;7.450;2023-03-14T06:34:46;0.60;;;0.60;;
19291;SDS011;9779;51.756;7.450;2023-03-14T06:37:12;1.23;;;0.80;;
19291;SDS011;9779;51.756;7.450;2023-03-14T06:39:38;0.70;;;0.70;;
19291;SDS011;9779;51.756;7.450;2023-03-14T06:42:03;1.70;;;0.80;;
19291;SDS011;9779;51.756;7.450;2023-03-14T06:44:29;1.10;;;0.90;;
19291;SDS011;9779;51.756;7.450;2023-03-14T06:46:55;1.23;;;1.00;;
19291;SDS011;9779;51.756;7.450;2023-03-14T06:49:21;2.30;;;0.80;;
19291;SDS011;9779;51.756;7.450;2023-03-14T06:51:46;0.80;;;0.80;;
19291;SDS011;9779;51.756;7.450;2023-03-14T06:54:12;0.70;;;0.70;;
19291;SDS011;9779;51.756;7.450;2023-03-14T06:56:37;0.90;;;0.90;;
19291;SDS011;9779;51.756;7.450;2023-03-14T06:59:03;2.00;;;1.27;;
19291;SDS011;9779;51.756;7.450;2023-03-14T07:01:29;0.93;;;0.93;;
19291;SDS011;9779;51.756;7.450;2023-03-14T07:03:57;0.80;;;0.73;;
19291;SDS011;9779;51.756;7.450;2023-03-14T07:06:23;1.10;;;1.03;;
19291;SDS011;9779;51.756;7.450;2023-03-14T07:08:50;1.07;;;0.97;;
19291;SDS011;9779;51.756;7.450;2023-03-14T07:11:15;1.30;;;1.30;;
19291;SDS011;9779;51.756;7.450;2023-03-14T07:13:41;1.23;;;1.10;;
19291;SDS011;9779;51.756;7.450;2023-03-14T07:16:07;1.33;;;1.23;;
19291;SDS011;9779;51.756;7.450;2023-03-14T07:18:33;2.73;;;1.30;;
19291;SDS011;9779;51.756;7.450;2023-03-14T07:20:59;1.43;;;0.97;;
19291;SDS011;9779;51.756;7.450;2023-03-14T07:23:24;2.07;;;1.37;;
19291;SDS011;9779;51.756;7.450;2023-03-14T07:25:50;1.93;;;1.57;;
19291;SDS011;9779;51.756;7.450;2023-03-14T07:28:16;1.90;;;1.20;;
19291;SDS011;9779;51.756;7.450;2023-03-14T07:30:42;2.50;;;1.20;;
19291;SDS011;9779;51.756;7.450;2023-03-14T07:33:07;1.50;;;1.40;;
19291;SDS011;9779;51.756;7.450;2023-03-14T07:35:33;4.17;;;1.13;;
19291;SDS011;9779;51.756;7.450;2023-03-14T07:37:58;2.93;;;1.30;;
19291;SDS011;9779;51.756;7.450;2023-03-14T07:40:24;1.07;;;0.80;;
19291;SDS011;9779;51.756;7.450;2023-03-14T07:42:49;2.03;;;1.33;;
19291;SDS011;9779;51.756;7.450;2023-03-14T07:45:15;2.57;;;1.10;;
19291;SDS011;9779;51.756;7.450;2023-03-14T07:47:41;2.03;;;1.20;;
19291;SDS011;9779;51.756;7.450;2023-03-14T07:50:06;2.67;;;1.17;;
19291;SDS011;9779;51.756;7.450;2023-03-14T07:52:33;1.23;;;1.13;;
19291;SDS011;9779;51.756;7.450;2023-03-14T07:54:58;1.47;;;1.13;;
19291;SDS011;9779;51.756;7.450;2023-03-14T07:57:24;1.10;;;1.10;;
19291;SDS011;9779;51.756;7.450;2023-03-14T07:59:49;0.90;;;0.90;;
19291;SDS011;9779;51.756;7.450;2023-03-14T08:02:15;2.47;;;1.23;;
19291;SDS011;9779;51.756;7.450;2023-03-14T08:04:41;1.90;;;1.00;;
19291;SDS011;9779;51.756;7.450;2023-03-14T08:07:06;0.90;;;0.90;;
19291;SDS011;9779;51.756;7.450;2023-03-14T08:09:32;0.73;;;0.73;;
19291;SDS011;9779;51.756;7.450;2023-03-14T08:11:57;1.57;;;1.33;;
19291;SDS011;9779;51.756;7.450;2023-03-14T08:14:23;1.17;;;1.17;;
19291;SDS011;9779;51.756;7.450;2023-03-14T08:16:49;1.37;;;1.20;;
19291;SDS011;9779;51.756;7.450;2023-03-14T08:19:15;1.07;;;0.97;;
19291;SDS011;9779;51.756;7.450;2023-03-14T08:21:41;1.27;;;1.07;;
19291;SDS011;9779;51.756;7.450;2023-03-14T08:24:07;4.53;;;1.50;;
19291;SDS011;9779;51.756;7.450;2023-03-14T08:26:33;3.47;;;3.17;;
19291;SDS011;9779;51.756;7.450;2023-03-14T08:28:58;1.10;;;0.97;;
19291;SDS011;9779;51.756;7.450;2023-03-14T08:31:24;2.40;;;1.60;;
19291;SDS011;9779;51.756;7.450;2023-03-14T08:33:50;1.30;;;1.20;;
19291;SDS011;9779;51.756;7.450;2023-03-14T08:36:17;1.50;;;1.30;;
19291;SDS011;9779;51.756;7.450;2023-03-14T08:38:43;1.40;;;1.40;;
19291;SDS011;9779;51.756;7.450;2023-03-14T08:41:09;1.70;;;1.57;;
19291;SDS011;9779;51.756;7.450;2023-03-14T08:43:35;1.40;;;1.37;;
19291;SDS011;9779;51.756;7.450;2023-03-14T08:46:01;1.30;;;1.07;;
19291;SDS011;9779;51.756;7.450;2023-03-14T08:48:27;1.30;;;1.20;;
19291;SDS011;9779;51.756;7.450;2023-03-14T08:50:55;1.17;;;1.13;;
19291;SDS011;9779;51.756;7.450;2023-03-14T08:53:21;1.63;;;1.17;;
19291;SDS011;9779;51.756;7.450;2023-03-14T08:55:51;1.83;;;1.50;;
19291;SDS011;9779;51.756;7.450;2023-03-14T08:58:18;1.03;;;1.03;;
19291;SDS011;9779;51.756;7.450;2023-03-14T09:00:43;1.53;;;1.43;;
19291;SDS011;9779;51.756;7.450;2023-03-14T09:03:09;1.50;;;1.40;;
19291;SDS011;9779;51.756;7.450;2023-03-14T09:05:34;1.53;;;1.50;;
19291;SDS011;9779;51.756;7.450;2023-03-14T09:08:00;1.80;;;1.70;;
19291;SDS011;9779;51.756;7.450;2023-03-14T09:10:26;2.00;;;1.60;;
19291;SDS011;9779;51.756;7.450;2023-03-14T09:12:51;2.00;;;1.90;;
19291;SDS011;9779;51.756;7.450;2023-03-14T09:15:17;2.40;;;2.20;;
19291;SDS011;9779;51.756;7.450;2023-03-14T09:17:43;1.90;;;1.80;;
19291;SDS011;9779;51.756;7.450;2023-03-14T09:20:09;2.90;;;2.10;;
19291;SDS011;9779;51.756;7.450;2023-03-14T09:22:35;1.90;;;1.80;;
19291;SDS011;9779;51.756;7.450;2023-03-14T09:25:04;2.10;;;2.00;;
19291;SDS011;9779;51.756;7.450;2023-03-14T09:27:30;2.00;;;1.90;;
19291;SDS011;9779;51.756;7.450;2023-03-14T09:29:55;2.23;;;2.13;;
19291;SDS011;9779;51.756;7.450;2023-03-14T09:32:21;2.83;;;2.53;;
19291;SDS011;9779;51.756;7.450;2023-03-14T09:34:46;2.10;;;2.00;;
19291;SDS011;9779;51.756;7.450;2023-03-14T09:37:12;1.97;;;1.87;;
19291;SDS011;9779;51.756;7.450;2023-03-14T09:39:37;2.33;;;2.23;;
19291;SDS011;9779;51.756;7.450;2023-03-14T09:42:04;1.60;;;1.50;;
19291;SDS011;9779;51.756;7.450;2023-03-14T09:44:34;1.60;;;1.50;;
19291;SDS011;9779;51.756;7.450;2023-03-14T09:47:05;1.67;;;0.97;;
19291;SDS011;9779;51.756;7.450;2023-03-14T09:49:41;0.57;;;0.50;;
19291;SDS011;9779;51.756;7.450;2023-03-14T09:52:11;0.70;;;0.70;;
19291;SDS011;9779;51.756;7.450;2023-03-14T09:54:47;2.20;;;0.90;;
19291;SDS011;9779;51.756;7.450;2023-03-14T09:57:18;0.90;;;0.70;;
19291;SDS011;9779;51.756;7.450;2023-03-14T09:59:46;1.10;;;1.00;;
19291;SDS011;9779;51.756;7.450;2023-03-14T10:02:21;0.77;;;0.77;;
19291;SDS011;9779;51.756;7.450;2023-03-14T10:04:52;0.83;;;0.73;;
19291;SDS011;9779;51.756;7.450;2023-03-14T10:07:21;0.50;;;0.50;;
19291;SDS011;9779;51.756;7.450;2023-03-14T10:09:53;0.70;;;0.70;;
19291;SDS011;9779;51.756;7.450;2023-03-14T10:12:19;0.77;;;0.57;;
19291;SDS011;9779;51.756;7.450;2023-03-14T10:14:54;1.03;;;0.47;;
19291;SDS011;9779;51.756;7.450;2023-03-14T10:17:20;0.60;;;0.60;;
19291;SDS011;9779;51.756;7.450;2023-03-14T10:22:19;0.50;;;0.50;;
19291;SDS011;9779;51.756;7.450;2023-03-14T10:24:47;0.60;;;0.50;;
19291;SDS011;9779;51.756;7.450;2023-03-14T10:27:19;1.03;;;0.50;;
19291;SDS011;9779;51.756;7.450;2023-03-14T10:29:56;0.40;;;0.40;;
19291;SDS011;9779;51.756;7.450;2023-03-14T10:32:33;0.80;;;0.60;;
19291;SDS011;9779;51.756;7.450;2023-03-14T10:35:05;0.40;;;0.40;;
19291;SDS011;9779;51.756;7.450;2023-03-14T10:37:50;3.13;;;0.40;;
19291;SDS011;9779;51.756;7.450;2023-03-14T10:40:36;0.57;;;0.40;;
19291;SDS011;9779;51.756;7.450;2023-03-14T10:43:05;1.03;;;0.60;;
19291;SDS011;9779;51.756;7.450;2023-03-14T10:45:33;0.90;;;0.57;;
19291;SDS011;9779;51.756;7.450;2023-03-14T10:48:18;2.93;;;0.53;;
19291;SDS011;9779;51.756;7.450;2023-03-14T10:50:49;1.00;;;0.60;;
19291;SDS011;9779;51.756;7.450;2023-03-14T10:53:19;0.43;;;0.43;;
19291;SDS011;9779;51.756;7.450;2023-03-14T10:55:45;0.73;;;0.70;;
19291;SDS011;9779;51.756;7.450;2023-03-14T10:58:18;0.50;;;0.50;;
19291;SDS011;9779;51.756;7.450;2023-03-14T11:00:58;0.60;;;0.60;;
19291;SDS011;9779;51.756;7.450;2023-03-14T11:03:32;0.87;;;0.70;;
19291;SDS011;9779;51.756;7.450;2023-03-14T11:08:42;0.40;;;0.40;;
19291;SDS011;9779;51.756;7.450;2023-03-14T11:11:19;1.53;;;0.60;;
19291;SDS011;9779;51.756;7.450;2023-03-14T11:14:07;1.47;;;0.60;;
19291;SDS011;9779;51.756;7.450;2023-03-14T11:16:49;0.40;;;0.40;;
19291;SDS011;9779;51.756;7.450;2023-03-14T11:21:49;1.07;;;0.80;;
19291;SDS011;9779;51.756;7.450;2023-03-14T11:24:39;0.70;;;0.70;;
19291;SDS011;9779;51.756;7.450;2023-03-14T11:27:26;1.20;;;1.20;;
19291;SDS011;9779;51.756;7.450;2023-03-14T11:30:02;4.17;;;2.50;;
19291;SDS011;9779;51.756;7.450;2023-03-14T11:34:59;4.07;;;1.90;;
19291;SDS011;9779;51.756;7.450;2023-03-14T11:37:33;1.40;;;1.30;;
19291;SDS011;9779;51.756;7.450;2023-03-14T11:40:19;1.50;;;0.93;;
19291;SDS011;9779;51.756;7.450;2023-03-14T11:43:04;1.67;;;1.00;;
19291;SDS011;9779;51.756;7.450;2023-03-14T11:45:41;4.13;;;0.80;;
19291;SDS011;9779;51.756;7.450;2023-03-14T11:48:22;1.63;;;0.70;;
19291;SDS011;9779;51.756;7.450;2023-03-14T11:50:56;2.07;;;0.77;;
19291;SDS011;9779;51.756;7.450;2023-03-14T11:56:13;1.00;;;0.70;;
19291;SDS011;9779;51.756;7.450;2023-03-14T11:58:48;6.03;;;1.03;;
19291;SDS011;9779;51.756;7.450;2023-03-14T12:01:31;1.63;;;1.53;;
19291;SDS011;9779;51.756;7.450;2023-03-14T12:04:09;2.90;;;1.10;;
19291;SDS011;9779;51.756;7.450;2023-03-14T12:06:45;5.50;;;1.83;;
19291;SDS011;9779;51.756;7.450;2023-03-14T12:09:13;5.67;;;1.60;;
19291;SDS011;9779;51.756;7.450;2023-03-14T12:14:18;3.23;;;1.27;;
19291;SDS011;9779;51.756;7.450;2023-03-14T12:16:53;5.93;;;1.40;;
19291;SDS011;9779;51.756;7.450;2023-03-14T12:19:39;3.13;;;1.27;;
19291;SDS011;9779;51.756;7.450;2023-03-14T12:22:07;2.37;;;1.20;;
19291;SDS011;9779;51.756;7.450;2023-03-14T12:24:44;3.03;;;1.50;;
19291;SDS011;9779;51.756;7.450;2023-03-14T12:27:13;4.87;;;1.30;;
19291;SDS011;9779;51.756;7.450;2023-03-14T12:30:13;3.87;;;1.17;;
19291;SDS011;9779;51.756;7.450;2023-03-14T12:35:38;3.17;;;1.30;;
19291;SDS011;9779;51.756;7.450;2023-03-14T12:38:32;3.80;;;1.33;;
19291;SDS011;9779;51.756;7.450;2023-03-14T12:41:01;5.17;;;1.60;;
19291;SDS011;9779;51.756;7.450;2023-03-14T12:43:29;6.83;;;1.60;;
19291;SDS011;9779;51.756;7.450;2023-03-14T12:46:15;1.63;;;1.00;;
19291;SDS011;9779;51.756;7.450;2023-03-14T12:51:54;5.20;;;1.57;;
19291;SDS011;9779;51.756;7.450;2023-03-14T12:56:58;3.67;;;1.40;;
19291;SDS011;9779;51.756;7.450;2023-03-14T12:59:32;3.67;;;1.70;;
19291;SDS011;9779;51.756;7.450;2023-03-14T13:02:00;5.70;;;1.70;;
19291;SDS011;9779;51.756;7.450;2023-03-14T13:04:33;4.40;;;1.60;;
19291;SDS011;9779;51.756;7.450;2023-03-14T13:07:02;6.03;;;2.00;;
19291;SDS011;9779;51.756;7.450;2023-03-14T13:11:54;7.47;;;3.07;;
19291;SDS011;9779;51.756;7.450;2023-03-14T13:14:25;4.40;;;1.70;;
19291;SDS011;9779;51.756;7.450;2023-03-14T13:16:53;10.00;;;2.37;;
19291;SDS011;9779;51.756;7.450;2023-03-14T13:19:23;6.40;;;2.03;;
19291;SDS011;9779;51.756;7.450;2023-03-14T13:21:52;8.27;;;1.90;;
19291;SDS011;9779;51.756;7.450;2023-03-14T13:24:26;9.43;;;2.87;;
19291;SDS011;9779;51.756;7.450;2023-03-14T13:26:56;8.70;;;2.30;;
19291;SDS011;9779;51.756;7.450;2023-03-14T13:32:01;5.43;;;2.40;;
19291;SDS011;9779;51.756;7.450;2023-03-14T13:34:37;15.50;;;2.97;;
19291;SDS011;9779;51.756;7.450;2023-03-14T13:37:03;15.03;;;2.90;;
19291;SDS011;9779;51.756;7.450;2023-03-14T13:39:29;7.67;;;2.37;;
19291;SDS011;9779;51.756;7.450;2023-03-14T13:41:59;7.73;;;1.90;;
19291;SDS011;9779;51.756;7.450;2023-03-14T13:44:33;8.90;;;2.40;;
19291;SDS011;9779;51.756;7.450;2023-03-14T13:47:03;14.40;;;2.93;;
19291;SDS011;9779;51.756;7.450;2023-03-14T13:49:30;15.30;;;2.90;;
19291;SDS011;9779;51.756;7.450;2023-03-14T13:52:00;14.47;;;2.77;;
19291;SDS011;9779;51.756;7.450;2023-03-14T13:54:27;8.43;;;2.30;;
19291;SDS011;9779;51.756;7.450;2023-03-14T13:56:59;13.33;;;3.83;;
19291;SDS011;9779;51.756;7.450;2023-03-14T13:59:30;11.73;;;3.33;;
19291;SDS011;9779;51.756;7.450;2023-03-14T14:02:11;12.13;;;3.10;;
19291;SDS011;9779;51.756;7.450;2023-03-14T14:04:39;15.30;;;3.70;;
19291;SDS011;9779;51.756;7.450;2023-03-14T14:07:08;12.00;;;3.40;;
19291;SDS011;9779;51.756;7.450;2023-03-14T14:09:39;13.60;;;2.93;;
19291;SDS011;9779;51.756;7.450;2023-03-14T14:17:11;13.30;;;2.30;;
19291;SDS011;9779;51.756;7.450;2023-03-14T14:19:39;8.03;;;2.17;;
19291;SDS011;9779;51.756;7.450;2023-03-14T14:22:08;7.13;;;2.40;;
19291;SDS011;9779;51.756;7.450;2023-03-14T14:24:36;12.13;;;1.93;;
19291;SDS011;9779;51.756;7.450;2023-03-14T14:29:41;9.57;;;2.07;;
19291;SDS011;9779;51.756;7.450;2023-03-14T14:34:39;5.63;;;1.53;;
19291;SDS011;9779;51.756;7.450;2023-03-14T14:37:41;4.20;;;1.90;;
19291;SDS011;9779;51.756;7.450;2023-03-14T14:40:24;5.57;;;1.90;;
19291;SDS011;9779;51.756;7.450;2023-03-14T14:42:52;8.87;;;2.17;;
19291;SDS011;9779;51.756;7.450;2023-03-14T14:45:19;6.50;;;2.00;;
19291;SDS011;9779;51.756;7.450;2023-03-14T14:47:53;7.53;;;2.27;;
19291;SDS011;9779;51.756;7.450;2023-03-14T14:52:55;6.80;;;2.13;;
19291;SDS011;9779;51.756;7.450;2023-03-14T14:55:22;6.77;;;1.90;;
19291;SDS011;9779;51.756;7.450;2023-03-14T14:57:54;3.80;;;1.63;;
19291;SDS011;9779;51.756;7.450;2023-03-14T15:00:23;4.03;;;1.73;;
19291;SDS011;9779;51.756;7.450;2023-03-14T15:02:52;9.87;;;2.37;;
19291;SDS011;9779;51.756;7.450;2023-03-14T15:05:21;4.83;;;2.10;;
19291;SDS011;9779;51.756;7.450;2023-03-14T15:07:48;6.57;;;1.83;;
19291;SDS011;9779;51.756;7.450;2023-03-14T15:10:15;11.70;;;1.80;;
19291;SDS011;9779;51.756;7.450;2023-03-14T15:12:43;8.00;;;1.67;;
19291;SDS011;9779;51.756;7.450;2023-03-14T15:15:09;3.33;;;1.53;;
19291;SDS011;9779;51.756;7.450;2023-03-14T15:17:35;8.13;;;1.67;;
19291;SDS011;9779;51.756;7.450;2023-03-14T15:20:03;7.27;;;1.90;;
19291;SDS011;9779;51.756;7.450;2023-03-14T15:22:29;7.20;;;1.73;;
19291;SDS011;9779;51.756;7.450;2023-03-14T15:24:55;2.93;;;1.60;;
19291;SDS011;9779;51.756;7.450;2023-03-14T15:27:21;3.33;;;1.23;;
19291;SDS011;9779;51.756;7.450;2023-03-14T15:29:47;4.03;;;1.90;;
19291;SDS011;9779;51.756;7.450;2023-03-14T15:32:13;4.03;;;1.40;;
19291;SDS011;9779;51.756;7.450;2023-03-14T15:34:43;8.60;;;1.87;;
19291;SDS011;9779;51.756;7.450;2023-03-14T15:37:12;5.03;;;1.70;;
19291;SDS011;9779;51.756;7.450;2023-03-14T15:39:40;5.43;;;1.53;;
19291;SDS011;9779;51.756;7.450;2023-03-14T15:42:09;10.30;;;1.13;;
19291;SDS011;9779;51.756;7.450;2023-03-14T15:44:35;4.87;;;1.33;;
19291;SDS011;9779;51.756;7.450;2023-03-14T15:47:01;4.20;;;1.63;;
19291;SDS011;9779;51.756;7.450;2023-03-14T15:49:27;6.97;;;1.90;;
19291;SDS011;9779;51.756;7.450;2023-03-14T15:51:53;8.97;;;1.80;;
19291;SDS011;9779;51.756;7.450;2023-03-14T15:54:19;5.03;;;1.70;;